createdAt,value
2022-11-05T00:00:23.441Z,75.87
2022-11-05T00:01:23.504Z,75.86
2022-11-05T00:02:23.581Z,75.87
2022-11-05T00:03:23.589Z,75.86
2022-11-05T00:04:26.802Z,75.77
2022-11-05T00:05:24.385Z,75.75
2022-11-05T00:06:23.363Z,75.80
2022-11-05T00:07:23.353Z,75.85
2022-11-05T00:08:23.519Z,75.86
2022-11-05T00:09:23.342Z,75.91
2022-11-05T00:10:23.333Z,75.91
2022-11-05T00:11:23.320Z,75.81
2022-11-05T00:12:23.318Z,75.70
2022-11-05T00:13:23.471Z,75.64
2022-11-05T00:14:23.289Z,75.54
2022-11-05T00:15:23.283Z,75.54
2022-11-05T00:16:23.281Z,75.59
2022-11-05T00:17:23.252Z,75.63
2022-11-05T00:18:23.240Z,75.65
2022-11-05T00:19:23.616Z,75.63
2022-11-05T00:20:23.231Z,75.64
2022-11-05T00:21:23.201Z,75.63
2022-11-05T00:22:23.204Z,75.65
2022-11-05T00:23:23.230Z,75.61
2022-11-05T00:24:24.339Z,75.57
2022-11-05T00:25:23.500Z,75.57
2022-11-05T00:26:23.164Z,75.56
2022-11-05T00:27:23.145Z,75.58
2022-11-05T00:28:23.134Z,75.57
2022-11-05T00:29:23.144Z,75.57
2022-11-05T00:30:23.195Z,75.59
2022-11-05T00:31:23.317Z,75.55
2022-11-05T00:32:23.124Z,75.53
2022-11-05T00:33:23.084Z,75.58
2022-11-05T00:34:23.106Z,75.60
2022-11-05T00:35:23.060Z,75.60
2022-11-05T00:36:23.089Z,75.57
2022-11-05T00:37:23.381Z,75.56
2022-11-05T00:38:23.032Z,75.53
2022-11-05T00:39:23.020Z,75.60
2022-11-05T00:40:23.012Z,75.67
2022-11-05T00:41:22.992Z,75.70
2022-11-05T00:42:23.012Z,75.66
2022-11-05T00:43:23.203Z,75.69
2022-11-05T00:44:22.993Z,75.69
2022-11-05T00:45:22.981Z,75.70
2022-11-05T00:46:22.943Z,75.77
2022-11-05T00:47:22.923Z,75.73
2022-11-05T00:48:22.910Z,75.70
2022-11-05T00:49:23.066Z,75.76
2022-11-05T00:50:22.911Z,75.82
2022-11-05T00:51:22.939Z,75.83
2022-11-05T00:52:22.878Z,75.91
2022-11-05T00:53:23.067Z,75.96
2022-11-05T00:54:22.865Z,76.01
2022-11-05T00:55:22.845Z,76.07
2022-11-05T00:56:22.831Z,76.10
2022-11-05T00:57:22.833Z,76.19
2022-11-05T00:58:22.825Z,76.25
2022-11-05T00:59:22.972Z,76.33
2022-11-05T01:00:22.789Z,76.34
2022-11-05T01:01:22.830Z,76.32
2022-11-05T01:02:22.889Z,76.34
2022-11-05T01:03:22.759Z,76.32
2022-11-05T01:04:22.746Z,76.35
2022-11-05T01:05:22.919Z,76.41
2022-11-05T01:06:22.721Z,76.43
2022-11-05T01:07:22.715Z,76.51
2022-11-05T01:08:22.706Z,76.57
2022-11-05T01:09:22.688Z,76.54
2022-11-05T01:10:22.679Z,76.46
2022-11-05T01:11:22.842Z,76.34
2022-11-05T01:12:22.653Z,76.25
2022-11-05T01:13:22.654Z,76.23
2022-11-05T01:14:22.643Z,76.23
2022-11-05T01:15:22.628Z,76.23
2022-11-05T01:16:22.761Z,76.20
2022-11-05T01:17:22.939Z,76.22
2022-11-05T01:18:22.599Z,76.22
2022-11-05T01:19:22.608Z,76.24
2022-11-05T01:20:22.625Z,76.24
2022-11-05T01:21:22.558Z,76.21
2022-11-05T01:22:22.556Z,76.18
2022-11-05T01:23:22.775Z,76.18
2022-11-05T01:24:22.530Z,76.19
2022-11-05T01:25:22.519Z,76.20
2022-11-05T01:26:22.512Z,76.18
2022-11-05T01:27:22.499Z,76.13
2022-11-05T01:28:22.549Z,76.15
2022-11-05T01:29:22.802Z,76.07
2022-11-05T01:30:22.466Z,75.99
2022-11-05T01:31:22.470Z,75.98
2022-11-05T01:32:22.454Z,76.01
2022-11-05T01:33:22.431Z,76.03
2022-11-05T01:34:22.424Z,76.05
2022-11-05T01:35:22.564Z,76.04
2022-11-05T01:36:22.400Z,75.95
2022-11-05T01:37:22.388Z,75.96
2022-11-05T01:38:22.376Z,75.99
2022-11-05T01:39:22.366Z,76.05
2022-11-05T01:40:22.630Z,76.07
2022-11-05T01:41:22.341Z,76.10
2022-11-05T01:42:22.337Z,76.11
2022-11-05T01:43:22.323Z,76.12
2022-11-05T01:44:22.312Z,76.14
2022-11-05T01:45:22.319Z,76.17
2022-11-05T01:46:22.459Z,76.17
2022-11-05T01:47:22.292Z,76.18
2022-11-05T01:48:22.275Z,76.26
2022-11-05T01:49:22.261Z,76.29
2022-11-05T01:50:22.256Z,76.31
2022-11-05T01:51:22.238Z,76.35
2022-11-05T01:52:22.428Z,76.40
2022-11-05T01:53:22.403Z,76.38
2022-11-05T01:54:22.207Z,76.35
2022-11-05T01:55:22.186Z,76.29
2022-11-05T01:56:22.195Z,76.28
2022-11-05T01:57:22.172Z,76.25
2022-11-05T01:58:22.158Z,76.27
2022-11-05T01:59:22.331Z,76.30
2022-11-05T02:00:22.138Z,76.32
2022-11-05T02:01:22.272Z,76.36
2022-11-05T02:02:22.324Z,76.36
2022-11-05T02:03:22.108Z,76.39
2022-11-05T02:04:22.118Z,76.47
2022-11-05T02:05:22.259Z,76.45
2022-11-05T02:06:22.066Z,76.39
2022-11-05T02:07:22.063Z,76.32
2022-11-05T02:08:22.058Z,76.30
2022-11-05T02:09:22.037Z,76.26
2022-11-05T02:10:22.029Z,76.24
2022-11-05T02:11:30.723Z,76.17
2022-11-05T02:12:22.006Z,76.14
2022-11-05T02:13:22.003Z,76.10
2022-11-05T02:14:21.992Z,76.04
2022-11-05T02:15:21.966Z,75.96
2022-11-05T02:16:21.967Z,75.96
2022-11-05T02:17:22.277Z,75.92
2022-11-05T02:18:21.946Z,75.93
2022-11-05T02:19:21.930Z,75.98
2022-11-05T02:20:21.924Z,76.00
2022-11-05T02:21:21.908Z,76.00
2022-11-05T02:22:21.896Z,76.02
2022-11-05T02:23:22.067Z,75.97
2022-11-05T02:24:21.876Z,75.95
2022-11-05T02:25:21.869Z,75.95
2022-11-05T02:26:21.856Z,75.95
2022-11-05T02:27:21.848Z,75.93
2022-11-05T02:28:21.832Z,75.93
2022-11-05T02:29:21.992Z,75.91
2022-11-05T02:30:21.814Z,75.91
2022-11-05T02:31:21.804Z,75.95
2022-11-05T02:32:21.791Z,75.95
2022-11-05T02:33:21.926Z,75.97
2022-11-05T02:34:21.767Z,75.97
2022-11-05T02:35:21.761Z,76.03
2022-11-05T02:36:21.747Z,76.05
2022-11-05T02:37:21.734Z,76.09
2022-11-05T02:38:21.936Z,76.10
2022-11-05T02:39:21.717Z,76.14
2022-11-05T02:40:21.705Z,76.22
2022-11-05T02:41:21.701Z,76.19
2022-11-05T02:42:21.677Z,76.19
2022-11-05T02:43:21.674Z,76.18
2022-11-05T02:44:21.822Z,76.11
2022-11-05T02:45:21.646Z,76.06
2022-11-05T02:46:21.645Z,76.07
2022-11-05T02:47:21.627Z,76.10
2022-11-05T02:48:21.616Z,76.10
2022-11-05T02:49:21.780Z,76.09
2022-11-05T02:50:21.606Z,76.06
2022-11-05T02:51:21.584Z,75.99
2022-11-05T02:52:21.578Z,75.96
2022-11-05T02:53:21.578Z,75.93
2022-11-05T02:54:21.555Z,75.92
2022-11-05T02:55:21.705Z,75.88
2022-11-05T02:56:21.536Z,75.86
2022-11-05T02:57:21.523Z,75.89
2022-11-05T02:58:21.505Z,75.90
2022-11-05T02:59:21.506Z,75.94
2022-11-05T03:00:21.486Z,75.99
2022-11-05T03:01:21.738Z,75.97
2022-11-05T03:02:21.677Z,76.03
2022-11-05T03:03:21.468Z,76.07
2022-11-05T03:04:21.445Z,76.12
2022-11-05T03:05:21.437Z,76.13
2022-11-05T03:06:21.591Z,76.08
2022-11-05T03:07:21.412Z,76.02
2022-11-05T03:08:21.396Z,76.02
2022-11-05T03:09:21.389Z,76.02
2022-11-05T03:10:21.384Z,76.02
2022-11-05T03:11:21.368Z,76.04
2022-11-05T03:12:21.526Z,76.08
2022-11-05T03:13:21.354Z,76.13
2022-11-05T03:14:21.492Z,76.26
2022-11-05T03:15:21.324Z,76.33
2022-11-05T03:16:21.323Z,76.33
2022-11-05T03:17:21.303Z,76.34
2022-11-05T03:18:21.464Z,76.35
2022-11-05T03:19:21.368Z,76.35
2022-11-05T03:20:21.283Z,76.31
2022-11-05T03:21:21.253Z,76.32
2022-11-05T03:22:21.251Z,76.34
2022-11-05T03:23:21.425Z,76.42
2022-11-05T03:24:21.232Z,76.52
2022-11-05T03:25:21.212Z,76.55
2022-11-05T03:26:21.203Z,76.52
2022-11-05T03:27:21.199Z,76.61
2022-11-05T03:28:21.191Z,76.59
2022-11-05T03:29:21.335Z,76.59
2022-11-05T03:30:21.159Z,76.63
2022-11-05T03:31:21.163Z,76.64
2022-11-05T03:32:21.147Z,76.68
2022-11-05T03:33:21.163Z,76.70
2022-11-05T03:34:21.295Z,76.73
2022-11-05T03:35:21.112Z,76.74
2022-11-05T03:36:21.168Z,76.67
2022-11-05T03:37:21.088Z,76.64
2022-11-05T03:38:21.087Z,76.61
2022-11-05T03:39:21.067Z,76.62
2022-11-05T03:40:21.254Z,76.60
2022-11-05T03:41:21.075Z,76.62
2022-11-05T03:42:21.040Z,76.68
2022-11-05T03:43:21.024Z,76.66
2022-11-05T03:44:21.017Z,76.55
2022-11-05T03:45:21.185Z,76.47
2022-11-05T03:46:20.993Z,76.51
2022-11-05T03:47:21.000Z,76.54
2022-11-05T03:48:21.030Z,76.55
2022-11-05T03:49:20.959Z,76.56
2022-11-05T03:50:20.977Z,76.54
2022-11-05T03:51:21.099Z,76.62
2022-11-05T03:52:20.932Z,76.66
2022-11-05T03:53:20.917Z,76.74
2022-11-05T03:54:20.916Z,76.78
2022-11-05T03:55:20.892Z,76.81
2022-11-05T03:56:21.059Z,76.86
2022-11-05T03:57:20.879Z,76.87
2022-11-05T03:58:20.870Z,76.93
2022-11-05T03:59:20.857Z,76.90
2022-11-05T04:00:20.844Z,76.93
2022-11-05T04:01:20.897Z,76.95
2022-11-05T04:02:21.117Z,77.02
2022-11-05T04:03:20.802Z,77.10
2022-11-05T04:04:20.807Z,77.17
2022-11-05T04:05:20.804Z,77.22
2022-11-05T04:06:20.774Z,77.30
2022-11-05T04:07:20.942Z,77.36
2022-11-05T04:08:20.766Z,77.45
2022-11-05T04:09:20.789Z,77.54
2022-11-05T04:10:20.742Z,77.52
2022-11-05T04:11:20.743Z,77.55
2022-11-05T04:12:20.711Z,77.53
2022-11-05T04:13:20.864Z,77.46
2022-11-05T04:14:20.695Z,77.36
2022-11-05T04:15:20.686Z,77.40
2022-11-05T04:16:20.687Z,77.41
2022-11-05T04:17:20.846Z,77.43
2022-11-05T04:18:20.657Z,77.42
2022-11-05T04:19:26.019Z,77.45
2022-11-05T04:20:21.630Z,77.48
2022-11-05T04:21:20.620Z,77.51
2022-11-05T04:22:20.610Z,77.54
2022-11-05T04:23:20.761Z,77.57
2022-11-05T04:24:20.579Z,77.57
2022-11-05T04:25:20.570Z,77.64
2022-11-05T04:26:20.561Z,77.62
2022-11-05T04:27:20.545Z,77.60
2022-11-05T04:28:20.541Z,77.54
2022-11-05T04:29:20.681Z,77.49
2022-11-05T04:30:20.661Z,77.50
2022-11-05T04:31:20.528Z,77.50
2022-11-05T04:32:20.499Z,77.46
2022-11-05T04:33:20.490Z,77.45
2022-11-05T04:34:20.662Z,77.43
2022-11-05T04:35:20.461Z,77.41
2022-11-05T04:36:20.453Z,77.35
2022-11-05T04:37:20.450Z,77.29
2022-11-05T04:38:20.447Z,77.27
2022-11-05T04:39:20.433Z,77.33
2022-11-05T04:40:20.604Z,77.32
2022-11-05T04:41:20.397Z,77.33
2022-11-05T04:42:20.396Z,77.35
2022-11-05T04:43:20.778Z,77.35
2022-11-05T04:44:20.372Z,77.39
2022-11-05T04:45:20.576Z,77.43
2022-11-05T04:46:20.353Z,77.49
2022-11-05T04:47:20.334Z,77.53
2022-11-05T04:48:20.328Z,77.51
2022-11-05T04:49:20.314Z,77.46
2022-11-05T04:50:20.314Z,77.46
2022-11-05T04:51:20.537Z,77.47
2022-11-05T04:52:20.305Z,77.45
2022-11-05T04:53:20.260Z,77.38
2022-11-05T04:54:20.259Z,77.43
2022-11-05T04:55:20.239Z,77.47
2022-11-05T04:56:20.250Z,77.50
2022-11-05T04:57:20.399Z,77.57
2022-11-05T04:58:20.219Z,77.59
2022-11-05T04:59:20.212Z,77.57
2022-11-05T05:00:20.219Z,77.54
2022-11-05T05:01:20.354Z,77.51
2022-11-05T05:02:20.293Z,77.49
2022-11-05T05:03:20.369Z,77.50
2022-11-05T05:04:20.175Z,77.49
2022-11-05T05:05:20.168Z,77.48
2022-11-05T05:06:20.149Z,77.56
2022-11-05T05:07:20.125Z,77.56
2022-11-05T05:08:20.109Z,77.51
2022-11-05T05:09:20.247Z,77.58
2022-11-05T05:10:20.096Z,77.61
2022-11-05T05:11:20.088Z,77.63
2022-11-05T05:12:20.079Z,77.64
2022-11-05T05:13:20.283Z,77.68
2022-11-05T05:14:20.055Z,77.67
2022-11-05T05:15:20.044Z,77.66
2022-11-05T05:16:20.045Z,77.66
2022-11-05T05:17:20.014Z,77.66
2022-11-05T05:18:20.014Z,77.65
2022-11-05T05:19:20.232Z,77.64
2022-11-05T05:20:20.000Z,77.65
2022-11-05T05:21:19.980Z,77.70
2022-11-05T05:22:19.978Z,77.69
2022-11-05T05:23:19.959Z,77.65
2022-11-05T05:24:19.963Z,77.65
2022-11-05T05:25:20.147Z,77.60
2022-11-05T05:26:19.930Z,77.54
2022-11-05T05:27:19.919Z,77.50
2022-11-05T05:28:19.907Z,77.46
2022-11-05T05:29:19.886Z,77.39
2022-11-05T05:30:19.899Z,77.38
2022-11-05T05:31:20.048Z,77.36
2022-11-05T05:32:19.872Z,77.37
2022-11-05T05:33:19.863Z,77.49
2022-11-05T05:34:19.831Z,77.55
2022-11-05T05:35:19.830Z,77.59
2022-11-05T05:36:19.998Z,77.68
2022-11-05T05:37:19.799Z,77.75
2022-11-05T05:38:19.788Z,77.83
2022-11-05T05:39:29.490Z,77.92
2022-11-05T05:40:27.305Z,78.04
2022-11-05T05:41:19.789Z,78.08
2022-11-05T05:42:28.509Z,78.11
2022-11-05T05:43:27.256Z,78.09
2022-11-05T05:44:35.269Z,78.06
2022-11-05T05:45:19.856Z,78.08
2022-11-05T05:46:28.224Z,78.09
2022-11-05T05:47:28.446Z,78.10
2022-11-05T05:48:19.694Z,78.17
2022-11-05T05:49:19.675Z,78.19
2022-11-05T05:50:19.707Z,78.21
2022-11-05T05:51:19.658Z,78.20
2022-11-05T05:52:19.671Z,78.22
2022-11-05T05:53:19.806Z,78.26
2022-11-05T05:54:19.859Z,78.31
2022-11-05T05:55:19.638Z,78.39
2022-11-05T05:56:19.653Z,78.43
2022-11-05T05:57:19.592Z,78.47
2022-11-05T05:58:19.733Z,78.55
2022-11-05T05:59:19.562Z,78.56
2022-11-05T06:00:19.554Z,78.54
2022-11-05T06:01:20.223Z,78.54
2022-11-05T06:02:19.679Z,78.50
2022-11-05T06:03:19.684Z,78.52
2022-11-05T06:04:19.701Z,78.53
2022-11-05T06:05:19.492Z,78.55
2022-11-05T06:06:19.527Z,78.58
2022-11-05T06:07:19.507Z,78.60
2022-11-05T06:08:19.501Z,78.61
2022-11-05T06:09:19.522Z,78.65
2022-11-05T06:10:19.883Z,78.70
2022-11-05T06:11:19.445Z,78.78
2022-11-05T06:12:19.454Z,78.82
2022-11-05T06:13:19.463Z,78.83
2022-11-05T06:14:19.442Z,78.89
2022-11-05T06:15:19.631Z,78.98
2022-11-05T06:16:19.644Z,79.00
2022-11-05T06:17:19.393Z,79.04
2022-11-05T06:18:19.412Z,79.08
2022-11-05T06:19:19.364Z,79.11
2022-11-05T06:20:19.378Z,79.09
2022-11-05T06:21:19.583Z,79.10
2022-11-05T06:22:19.373Z,79.15
2022-11-05T06:23:19.300Z,79.17
2022-11-05T06:24:19.301Z,79.26
2022-11-05T06:25:19.332Z,79.33
2022-11-05T06:26:19.433Z,79.33
2022-11-05T06:27:19.442Z,79.30
2022-11-05T06:28:19.302Z,79.29
2022-11-05T06:29:19.240Z,79.30
2022-11-05T06:30:19.241Z,79.34
2022-11-05T06:31:19.253Z,79.36
2022-11-05T06:32:19.560Z,79.41
2022-11-05T06:33:19.193Z,79.42
2022-11-05T06:34:19.186Z,79.45
2022-11-05T06:35:19.224Z,79.47
2022-11-05T06:36:19.198Z,79.50
2022-11-05T06:37:19.189Z,79.54
2022-11-05T06:38:19.817Z,79.54
2022-11-05T06:39:19.192Z,79.53
2022-11-05T06:40:19.169Z,79.52
2022-11-05T06:41:19.174Z,79.52
2022-11-05T06:42:19.577Z,79.53
2022-11-05T06:43:19.199Z,79.56
2022-11-05T06:44:19.334Z,79.61
2022-11-05T06:45:19.100Z,79.72
2022-11-05T06:46:19.123Z,79.78
2022-11-05T06:47:19.061Z,79.86
2022-11-05T06:48:19.159Z,79.84
2022-11-05T06:49:19.293Z,79.96
2022-11-05T06:50:19.008Z,80.06
2022-11-05T06:51:19.010Z,80.09
2022-11-05T06:52:19.018Z,80.06
2022-11-05T06:53:18.988Z,80.05
2022-11-05T06:54:19.020Z,80.05
2022-11-05T06:55:19.197Z,79.99
2022-11-05T06:56:18.955Z,79.97
2022-11-05T06:57:19.021Z,80.01
2022-11-05T06:58:18.944Z,80.00
2022-11-05T06:59:19.111Z,79.93
2022-11-05T07:00:19.108Z,79.80
2022-11-05T07:01:19.104Z,79.75
2022-11-05T07:02:19.274Z,79.72
2022-11-05T07:03:19.108Z,79.60
2022-11-05T07:04:18.875Z,79.47
2022-11-05T07:05:18.859Z,79.35
2022-11-05T07:06:18.887Z,79.26
2022-11-05T07:07:18.842Z,79.20
2022-11-05T07:08:18.998Z,79.22
2022-11-05T07:09:18.829Z,79.09
2022-11-05T07:10:18.857Z,79.00
2022-11-05T07:11:18.804Z,79.00
2022-11-05T07:12:18.967Z,78.91
2022-11-05T07:13:18.760Z,78.80
2022-11-05T07:14:18.770Z,78.77
2022-11-05T07:15:18.743Z,78.82
2022-11-05T07:16:18.738Z,78.83
2022-11-05T07:17:18.748Z,78.77
2022-11-05T07:18:18.889Z,78.74
2022-11-05T07:19:18.701Z,78.66
2022-11-05T07:20:18.708Z,78.48
2022-11-05T07:21:18.667Z,78.37
2022-11-05T07:22:18.684Z,78.33
2022-11-05T07:23:18.666Z,78.31
2022-11-05T07:24:18.849Z,78.34
2022-11-05T07:25:18.627Z,78.31
2022-11-05T07:26:18.645Z,78.18
2022-11-05T07:27:18.617Z,78.17
2022-11-05T07:28:18.607Z,78.19
2022-11-05T07:29:18.597Z,78.01
2022-11-05T07:30:18.794Z,77.86
2022-11-05T07:31:18.614Z,77.75
2022-11-05T07:32:18.667Z,77.67
2022-11-05T07:33:18.577Z,77.63
2022-11-05T07:34:18.598Z,77.63
2022-11-05T07:35:18.608Z,77.74
2022-11-05T07:36:18.761Z,77.64
2022-11-05T07:37:18.536Z,77.68
2022-11-05T07:38:18.571Z,77.71
2022-11-05T07:39:18.527Z,77.76
2022-11-05T07:40:18.631Z,77.75
2022-11-05T07:41:18.726Z,77.72
2022-11-05T07:42:18.521Z,77.61
2022-11-05T07:43:18.530Z,77.59
2022-11-05T07:44:18.642Z,77.54
2022-11-05T07:45:18.457Z,77.47
2022-11-05T07:46:18.489Z,77.48
2022-11-05T07:47:18.590Z,77.54
2022-11-05T07:48:18.418Z,77.68
2022-11-05T07:49:18.402Z,77.57
2022-11-05T07:50:18.397Z,77.49
2022-11-05T07:51:18.367Z,77.49
2022-11-05T07:52:18.386Z,77.53
2022-11-05T07:53:18.647Z,77.44
2022-11-05T07:54:18.404Z,77.29
2022-11-05T07:55:18.354Z,77.11
2022-11-05T07:56:18.365Z,77.02
2022-11-05T07:57:18.505Z,77.06
2022-11-05T07:58:18.453Z,76.97
2022-11-05T07:59:18.351Z,76.97
2022-11-05T08:00:18.288Z,76.93
2022-11-05T08:01:18.402Z,76.92
2022-11-05T08:02:18.806Z,76.86
2022-11-05T08:03:19.053Z,76.89
2022-11-05T08:04:18.247Z,76.97
2022-11-05T08:05:18.247Z,76.83
2022-11-05T08:06:18.350Z,76.57
2022-11-05T08:07:18.266Z,76.44
2022-11-05T08:08:18.512Z,76.26
2022-11-05T08:09:18.416Z,76.06
2022-11-05T08:10:18.176Z,75.78
2022-11-05T08:11:18.301Z,75.69
2022-11-05T08:12:18.180Z,75.52
2022-11-05T08:13:18.656Z,75.61
2022-11-05T08:14:18.265Z,75.53
2022-11-05T08:15:18.324Z,75.40
2022-11-05T08:16:18.109Z,75.38
2022-11-05T08:17:18.608Z,75.31
2022-11-05T08:18:18.361Z,75.25
2022-11-05T08:19:22.079Z,75.32
2022-11-05T08:20:18.211Z,75.32
2022-11-05T08:21:18.064Z,75.04
2022-11-05T08:22:18.107Z,74.97
2022-11-05T08:23:18.042Z,74.90
2022-11-05T08:24:18.257Z,74.87
2022-11-05T08:25:18.297Z,74.64
2022-11-05T08:26:18.269Z,74.59
2022-11-05T08:27:18.082Z,74.42
2022-11-05T08:28:17.967Z,74.12
2022-11-05T08:29:18.060Z,73.99
2022-11-05T08:30:18.138Z,74.12
2022-11-05T08:31:17.964Z,73.94
2022-11-05T08:32:17.968Z,73.55
2022-11-05T08:33:18.162Z,73.39
2022-11-05T08:34:18.146Z,73.65
2022-11-05T08:35:17.956Z,73.66
2022-11-05T08:36:18.456Z,73.63
2022-11-05T08:37:17.944Z,73.53
2022-11-05T08:38:17.907Z,73.15
2022-11-05T08:39:17.853Z,73.07
2022-11-05T08:40:18.051Z,72.97
2022-11-05T08:41:17.835Z,73.00
2022-11-05T08:42:17.858Z,72.94
2022-11-05T08:43:17.825Z,73.01
2022-11-05T08:44:17.795Z,73.13
2022-11-05T08:45:17.798Z,73.17
2022-11-05T08:46:17.937Z,73.19
2022-11-05T08:47:17.760Z,73.01
2022-11-05T08:48:17.745Z,72.83
2022-11-05T08:49:17.756Z,72.94
2022-11-05T08:50:17.775Z,72.55
2022-11-05T08:51:18.076Z,72.16
2022-11-05T08:52:17.705Z,72.07
2022-11-05T08:53:17.727Z,71.95
2022-11-05T08:54:17.717Z,72.04
2022-11-05T08:55:17.654Z,71.70
2022-11-05T08:56:17.680Z,71.67
2022-11-05T08:57:17.854Z,71.63
2022-11-05T08:58:17.677Z,71.35
2022-11-05T08:59:17.659Z,71.14
2022-11-05T09:00:17.626Z,71.11
2022-11-05T09:01:17.737Z,70.89
2022-11-05T09:02:17.727Z,70.85
2022-11-05T09:03:17.896Z,70.97
2022-11-05T09:04:17.588Z,71.56
2022-11-05T09:05:17.581Z,71.66
2022-11-05T09:06:17.590Z,71.80
2022-11-05T09:07:17.553Z,71.70
2022-11-05T09:08:17.594Z,71.68
2022-11-05T09:09:17.740Z,72.07
2022-11-05T09:10:17.535Z,71.70
2022-11-05T09:11:17.504Z,71.81
2022-11-05T09:12:17.508Z,71.80
2022-11-05T09:13:19.896Z,71.56
2022-11-05T09:14:17.725Z,71.77
2022-11-05T09:15:17.474Z,70.97
2022-11-05T09:16:17.617Z,70.97
2022-11-05T09:17:17.474Z,70.18
2022-11-05T09:18:17.429Z,70.26
2022-11-05T09:19:17.476Z,69.55
2022-11-05T09:20:17.627Z,69.64
2022-11-05T09:21:17.434Z,69.72
2022-11-05T09:22:17.399Z,69.97
2022-11-05T09:23:17.375Z,69.69
2022-11-05T09:24:17.377Z,69.58
2022-11-05T09:25:17.358Z,69.31
2022-11-05T09:26:17.515Z,69.14
2022-11-05T09:27:17.359Z,68.89
2022-11-05T09:28:17.589Z,68.65
2022-11-05T09:29:17.324Z,68.65
2022-11-05T09:30:17.295Z,68.55
2022-11-05T09:31:17.386Z,68.95
2022-11-05T09:32:17.334Z,69.03
2022-11-05T09:33:17.295Z,68.73
2022-11-05T09:34:17.259Z,68.65
2022-11-05T09:35:17.262Z,68.56
2022-11-05T09:36:17.467Z,68.50
2022-11-05T09:37:17.254Z,68.67
2022-11-05T09:38:17.217Z,68.38
2022-11-05T09:39:17.238Z,68.14
2022-11-05T09:40:17.225Z,68.32
2022-11-05T09:41:17.180Z,68.39
2022-11-05T09:42:17.388Z,68.27
2022-11-05T09:43:17.190Z,68.23
2022-11-05T09:44:17.214Z,68.20
2022-11-05T09:45:17.151Z,70.65
2022-11-05T09:46:17.127Z,70.96
2022-11-05T09:47:17.128Z,70.54
2022-11-05T09:48:17.330Z,69.48
2022-11-05T09:49:17.093Z,69.49
2022-11-05T09:50:17.055Z,69.51
2022-11-05T09:51:23.482Z,69.45
2022-11-05T09:52:18.070Z,69.35
2022-11-05T09:53:17.215Z,69.54
2022-11-05T09:54:17.026Z,70.10
2022-11-05T09:55:17.011Z,69.97
2022-11-05T09:56:17.001Z,69.56
2022-11-05T09:57:16.992Z,69.64
2022-11-05T09:58:16.985Z,69.43
2022-11-05T09:59:17.145Z,69.41
2022-11-05T10:00:16.961Z,69.37
2022-11-05T10:01:17.096Z,69.55
2022-11-05T10:02:16.988Z,69.54
2022-11-05T10:03:16.934Z,69.42
2022-11-05T10:04:17.012Z,69.24
2022-11-05T10:05:17.104Z,68.97
2022-11-05T10:06:16.906Z,68.83
2022-11-05T10:07:16.892Z,68.57
2022-11-05T10:08:16.896Z,67.62
2022-11-05T10:09:16.864Z,67.89
2022-11-05T10:10:16.845Z,67.98
2022-11-05T10:11:16.874Z,67.95
2022-11-05T10:12:16.834Z,67.88
2022-11-05T10:13:16.820Z,67.00
2022-11-05T10:14:16.855Z,67.82
2022-11-05T10:15:16.801Z,67.98
2022-11-05T10:16:16.843Z,67.78
2022-11-05T10:17:16.792Z,67.19
2022-11-05T10:18:16.765Z,67.28
2022-11-05T10:19:16.765Z,67.58
2022-11-05T10:20:16.740Z,67.49
2022-11-05T10:21:16.738Z,67.63
2022-11-05T10:22:16.914Z,67.86
2022-11-05T10:23:16.714Z,67.40
2022-11-05T10:24:16.719Z,67.36
2022-11-05T10:25:24.212Z,67.73
2022-11-05T10:26:16.702Z,67.69
2022-11-05T10:27:16.843Z,67.47
2022-11-05T10:28:16.649Z,67.58
2022-11-05T10:29:16.651Z,67.52
2022-11-05T10:30:16.633Z,67.32
2022-11-05T10:31:16.654Z,66.87
2022-11-05T10:32:16.620Z,67.21
2022-11-05T10:33:16.803Z,67.66
2022-11-05T10:34:16.595Z,67.05
2022-11-05T10:35:16.590Z,66.90
2022-11-05T10:36:16.577Z,67.03
2022-11-05T10:37:16.573Z,66.91
2022-11-05T10:38:16.547Z,66.09
2022-11-05T10:39:16.742Z,65.97
2022-11-05T10:40:16.535Z,66.35
2022-11-05T10:41:16.534Z,66.46
2022-11-05T10:42:16.504Z,66.85
2022-11-05T10:43:17.181Z,66.49
2022-11-05T10:44:25.378Z,66.13
2022-11-05T10:45:16.472Z,66.67
2022-11-05T10:46:16.458Z,67.21
2022-11-05T10:47:16.447Z,66.86
2022-11-05T10:48:16.441Z,66.26
2022-11-05T10:49:16.418Z,66.22
2022-11-05T10:50:16.620Z,66.32
2022-11-05T10:51:16.407Z,66.19
2022-11-05T10:52:16.400Z,66.54
2022-11-05T10:53:16.397Z,66.74
2022-11-05T10:54:16.400Z,66.82
2022-11-05T10:55:16.369Z,66.84
2022-11-05T10:56:16.536Z,66.53
2022-11-05T10:57:16.344Z,66.81
2022-11-05T10:58:16.367Z,66.89
2022-11-05T10:59:16.329Z,67.31
2022-11-05T11:00:16.350Z,66.98
2022-11-05T11:01:16.353Z,67.04
2022-11-05T11:02:16.768Z,67.25
2022-11-05T11:03:16.284Z,66.98
2022-11-05T11:04:16.278Z,67.30
2022-11-05T11:05:16.262Z,67.37
2022-11-05T11:06:16.247Z,67.08
2022-11-05T11:07:16.238Z,67.27
2022-11-05T11:08:16.424Z,67.20
2022-11-05T11:09:16.217Z,67.26
2022-11-05T11:10:16.216Z,68.02
2022-11-05T11:11:16.188Z,67.39
2022-11-05T11:12:16.227Z,67.47
2022-11-05T11:13:16.390Z,66.77
2022-11-05T11:14:16.211Z,67.34
2022-11-05T11:15:16.187Z,67.36
2022-11-05T11:16:16.151Z,67.20
2022-11-05T11:17:16.151Z,69.26
2022-11-05T11:18:16.198Z,68.22
2022-11-05T11:19:16.278Z,67.47
2022-11-05T11:20:16.111Z,67.33
2022-11-05T11:21:23.614Z,66.80
2022-11-05T11:22:23.582Z,66.83
2022-11-05T11:23:23.588Z,66.78
2022-11-05T11:24:16.067Z,66.89
2022-11-05T11:25:16.221Z,66.32
2022-11-05T11:26:16.024Z,66.27
2022-11-05T11:27:19.898Z,66.39
2022-11-05T11:28:16.021Z,65.87
2022-11-05T11:29:16.179Z,65.42
2022-11-05T11:30:15.978Z,65.73
2022-11-05T11:31:15.986Z,65.64
2022-11-05T11:32:15.957Z,64.17
2022-11-05T11:33:15.956Z,64.54
2022-11-05T11:34:16.148Z,64.47
2022-11-05T11:35:15.933Z,64.60
2022-11-05T11:36:15.917Z,64.93
2022-11-05T11:37:19.404Z,65.19
2022-11-05T11:38:15.908Z,64.77
2022-11-05T11:39:15.902Z,64.14
2022-11-05T11:40:16.141Z,63.96
2022-11-05T11:41:15.884Z,64.35
2022-11-05T11:42:16.049Z,64.74
2022-11-05T11:43:15.882Z,64.57
2022-11-05T11:44:15.844Z,64.02
2022-11-05T11:45:15.858Z,63.33
2022-11-05T11:46:15.819Z,62.94
2022-11-05T11:47:15.808Z,62.92
2022-11-05T11:48:15.972Z,62.57
2022-11-05T11:49:15.799Z,62.46
2022-11-05T11:50:15.841Z,62.22
2022-11-05T11:51:15.779Z,62.28
2022-11-05T11:52:15.997Z,62.26
2022-11-05T11:53:15.917Z,61.97
2022-11-05T11:54:15.751Z,61.77
2022-11-05T11:55:15.732Z,62.14
2022-11-05T11:56:15.727Z,62.37
2022-11-05T11:57:15.729Z,62.27
2022-11-05T11:58:15.865Z,62.35
2022-11-05T11:59:15.698Z,62.49
2022-11-05T12:00:15.727Z,62.60
2022-11-05T12:01:15.661Z,62.87
2022-11-05T12:02:15.813Z,63.74
2022-11-05T12:03:16.314Z,64.50
2022-11-05T12:04:15.990Z,64.68
2022-11-05T12:05:15.629Z,64.00
2022-11-05T12:06:15.618Z,63.92
2022-11-05T12:07:15.608Z,63.70
2022-11-05T12:08:15.587Z,63.80
2022-11-05T12:09:15.578Z,63.41
2022-11-05T12:10:15.740Z,63.31
2022-11-05T12:11:15.559Z,63.62
2022-11-05T12:12:15.548Z,63.71
2022-11-05T12:13:15.579Z,63.90
2022-11-05T12:14:15.719Z,63.19
2022-11-05T12:15:15.537Z,62.61
2022-11-05T12:16:15.512Z,62.72
2022-11-05T12:17:15.527Z,63.14
2022-11-05T12:18:15.494Z,62.80
2022-11-05T12:19:15.479Z,62.68
2022-11-05T12:20:15.659Z,62.73
2022-11-05T12:21:24.905Z,62.70
2022-11-05T12:22:16.679Z,62.95
2022-11-05T12:23:15.439Z,62.78
2022-11-05T12:24:15.419Z,62.86
2022-11-05T12:25:15.444Z,62.85
2022-11-05T12:26:15.404Z,63.14
2022-11-05T12:27:15.403Z,63.39
2022-11-05T12:28:15.598Z,62.63
2022-11-05T12:29:19.516Z,62.19
2022-11-05T12:30:15.356Z,61.88
2022-11-05T12:31:15.342Z,62.09
2022-11-05T12:32:15.370Z,62.40
2022-11-05T12:33:16.060Z,61.94
2022-11-05T12:34:15.309Z,61.64
2022-11-05T12:35:15.300Z,62.01
2022-11-05T12:36:15.259Z,61.94
2022-11-05T12:37:15.263Z,62.05
2022-11-05T12:38:15.260Z,62.46
2022-11-05T12:39:15.464Z,62.17
2022-11-05T12:40:15.234Z,62.00
2022-11-05T12:41:15.245Z,61.47
2022-11-05T12:42:15.218Z,61.27
2022-11-05T12:43:15.377Z,61.42
2022-11-05T12:44:15.369Z,61.70
2022-11-05T12:45:15.208Z,61.97
2022-11-05T12:46:15.212Z,62.03
2022-11-05T12:47:15.190Z,62.05
2022-11-05T12:48:15.155Z,62.07
2022-11-05T12:49:15.319Z,62.02
2022-11-05T12:50:15.149Z,62.14
2022-11-05T12:51:15.114Z,62.23
2022-11-05T12:52:15.110Z,62.16